Charter Quote
Worldwide +1-877-727-2538 Call
Select Language Lang
SAFETY RELIABILITY EXPERIENCE

Valkenburg Airport (EHVB) - Jet Charter Services

AIRPORT INFORMATION
ICAOEHVB
IATALID
LOCATIONLeiden, Netherlands
FACILITY TYPEAIRPORT
Runway Length (ft) Width (ft) Surface Type Elevation (ft)
23/05 8006 148 ASP 0.98361
34/16 4920 148 ASP 0.98361

At Paramount Business Jets you can hire chartered private jets to and from Valkenburg Airport with as little as 4 hours of notice. All flights booked via Paramount Business Jets are operated by certified direct air carriers that meet and exceed the FAA part 135 and 121 protocol or a foreign equivalent safety authority. Furthermore, Paramount Business Jets subscribes to ARGUS for their third party safety checks of operators, aircraft, and crews prior each and every flight to and from Valkenburg Airport and worldwide.

  • Quote a trip using Valkenburg Airport or call us 24/7 - 365 days a year at +1-877-727-2538.
Questions? Call +1-877-727-2538

METAR Weather Data at Valkenburg Airport, EHVB, LID

STATIONEHVB
OBSERVEDThu Apr 1, 07:55 UTC
NOWWed Jan 16, 16:35 UTC
AGE77096:40 hr ago
WINDWSW at 20 mph
METAREHVB 010755Z AUTO 25017KT 9999NDV FEW021/// BKN037/// 05/01 Q1003 BLU

Call us on +1-877-727-2538 (24 Hours) to Hire a Private Jet or Get a Quick Quote.

Find Airports Near any Location

Processing
...